Terminal Aerodrome Forecast
Issued by NWS

Home | Current Version | Previous Version | Text Only | Print | Product List | Glossary On
Versions: 1 2 3 4 5 6 7 8 9 10 11 12 13 14 15 16 17 18 19 20 21 22 23 24 25 26 27 28
000
FTUS43 KSGF 211700
TAFJLN
TAF
KJLN 211733Z 2118/2218 17010KT P6SM BKN010 OVC025
      TEMPO 2119/2123 SCT010 SCT025 OVC035
     FM212300 16011KT P6SM SCT015 OVC035
     FM220400 16014KT P6SM OVC030
     FM220900 16013KT 5SM BR VCSH OVC020
     FM221200 18012KT 5SM BR VCSH OVC012=

USA.gov is the U.S. government's official web portal to all federal, state and local government web resources and services.